sensor_id;sensor_type;location;lat;lon;timestamp;P1;durP1;ratioP1;P2;durP2;ratioP2
58414;SDS011;44210;42.706;18.344;2022-09-12T00:00:12;4.93;;;3.70;;
58414;SDS011;44210;42.706;18.344;2022-09-12T00:02:39;6.10;;;3.63;;
58414;SDS011;44210;42.706;18.344;2022-09-12T00:05:06;6.18;;;4.35;;
58414;SDS011;44210;42.706;18.344;2022-09-12T00:07:32;7.50;;;4.35;;
58414;SDS011;44210;42.706;18.344;2022-09-12T00:09:58;4.20;;;3.60;;
58414;SDS011;44210;42.706;18.344;2022-09-12T00:12:24;3.90;;;3.50;;
58414;SDS011;44210;42.706;18.344;2022-09-12T00:14:50;5.20;;;3.90;;
58414;SDS011;44210;42.706;18.344;2022-09-12T00:17:16;5.95;;;3.60;;
58414;SDS011;44210;42.706;18.344;2022-09-12T00:19:42;4.53;;;3.60;;
58414;SDS011;44210;42.706;18.344;2022-09-12T00:22:09;5.60;;;4.00;;
58414;SDS011;44210;42.706;18.344;2022-09-12T00:24:35;7.35;;;3.55;;
58414;SDS011;44210;42.706;18.344;2022-09-12T00:27:00;4.55;;;3.83;;
58414;SDS011;44210;42.706;18.344;2022-09-12T00:29:27;6.38;;;4.22;;
58414;SDS011;44210;42.706;18.344;2022-09-12T00:31:53;4.97;;;4.13;;
58414;SDS011;44210;42.706;18.344;2022-09-12T00:34:19;4.65;;;3.83;;
58414;SDS011;44210;42.706;18.344;2022-09-12T00:36:45;6.65;;;4.00;;
58414;SDS011;44210;42.706;18.344;2022-09-12T00:39:13;4.95;;;3.53;;
58414;SDS011;44210;42.706;18.344;2022-09-12T00:41:40;4.13;;;3.50;;
58414;SDS011;44210;42.706;18.344;2022-09-12T00:51:51;7.68;;;3.50;;
58414;SDS011;44210;42.706;18.344;2022-09-12T00:54:20;4.40;;;3.17;;
58414;SDS011;44210;42.706;18.344;2022-09-12T00:56:47;6.20;;;3.00;;
58414;SDS011;44210;42.706;18.344;2022-09-12T00:59:16;4.32;;;3.22;;
58414;SDS011;44210;42.706;18.344;2022-09-12T01:01:43;3.60;;;3.28;;
58414;SDS011;44210;42.706;18.344;2022-09-12T01:04:10;5.00;;;3.10;;
58414;SDS011;44210;42.706;18.344;2022-09-12T01:06:40;3.72;;;3.42;;
58414;SDS011;44210;42.706;18.344;2022-09-12T01:09:07;5.32;;;3.33;;
58414;SDS011;44210;42.706;18.344;2022-09-12T01:11:35;3.50;;;2.97;;
58414;SDS011;44210;42.706;18.344;2022-09-12T01:14:01;4.70;;;4.10;;
58414;SDS011;44210;42.706;18.344;2022-09-12T01:16:27;5.78;;;3.38;;
58414;SDS011;44210;42.706;18.344;2022-09-12T01:21:34;3.67;;;3.35;;
58414;SDS011;44210;42.706;18.344;2022-09-12T01:31:43;3.83;;;3.40;;
58414;SDS011;44210;42.706;18.344;2022-09-12T01:39:27;3.38;;;3.08;;
58414;SDS011;44210;42.706;18.344;2022-09-12T01:42:03;5.32;;;3.30;;
58414;SDS011;44210;42.706;18.344;2022-09-12T01:44:36;3.63;;;3.33;;
58414;SDS011;44210;42.706;18.344;2022-09-12T01:47:06;3.30;;;3.00;;
58414;SDS011;44210;42.706;18.344;2022-09-12T01:49:39;4.85;;;3.28;;
58414;SDS011;44210;42.706;18.344;2022-09-12T01:54:36;4.25;;;3.03;;
58414;SDS011;44210;42.706;18.344;2022-09-12T01:57:10;3.58;;;2.83;;
58414;SDS011;44210;42.706;18.344;2022-09-12T01:59:39;3.28;;;2.95;;
58414;SDS011;44210;42.706;18.344;2022-09-12T02:02:10;4.30;;;3.00;;
58414;SDS011;44210;42.706;18.344;2022-09-12T02:04:40;4.90;;;2.88;;
58414;SDS011;44210;42.706;18.344;2022-09-12T02:07:10;3.90;;;3.08;;
58414;SDS011;44210;42.706;18.344;2022-09-12T02:12:07;4.70;;;2.63;;
58414;SDS011;44210;42.706;18.344;2022-09-12T02:14:37;3.60;;;3.05;;
58414;SDS011;44210;42.706;18.344;2022-09-12T02:17:06;2.95;;;2.75;;
58414;SDS011;44210;42.706;18.344;2022-09-12T02:19:35;3.42;;;3.05;;
58414;SDS011;44210;42.706;18.344;2022-09-12T02:22:04;5.70;;;3.22;;
58414;SDS011;44210;42.706;18.344;2022-09-12T02:24:42;4.97;;;3.10;;
58414;SDS011;44210;42.706;18.344;2022-09-12T02:29:36;3.88;;;3.47;;
58414;SDS011;44210;42.706;18.344;2022-09-12T02:32:27;2.63;;;2.42;;
58414;SDS011;44210;42.706;18.344;2022-09-12T02:34:52;2.78;;;2.55;;
58414;SDS011;44210;42.706;18.344;2022-09-12T02:39:55;2.78;;;2.58;;
58414;SDS011;44210;42.706;18.344;2022-09-12T02:42:22;4.13;;;3.08;;
58414;SDS011;44210;42.706;18.344;2022-09-12T02:44:49;5.85;;;3.30;;
58414;SDS011;44210;42.706;18.344;2022-09-12T02:47:22;5.25;;;2.70;;
58414;SDS011;44210;42.706;18.344;2022-09-12T02:49:51;3.00;;;2.70;;
58414;SDS011;44210;42.706;18.344;2022-09-12T02:52:18;2.58;;;2.38;;
58414;SDS011;44210;42.706;18.344;2022-09-12T02:54:44;3.08;;;2.78;;
58414;SDS011;44210;42.706;18.344;2022-09-12T02:57:17;4.30;;;3.10;;
58414;SDS011;44210;42.706;18.344;2022-09-12T02:59:44;5.68;;;2.80;;
58414;SDS011;44210;42.706;18.344;2022-09-12T03:25:05;3.35;;;2.50;;
58414;SDS011;44210;42.706;18.344;2022-09-12T03:27:33;3.33;;;2.20;;
58414;SDS011;44210;42.706;18.344;2022-09-12T03:30:02;2.55;;;2.35;;
58414;SDS011;44210;42.706;18.344;2022-09-12T03:35:06;2.33;;;2.13;;
58414;SDS011;44210;42.706;18.344;2022-09-12T03:37:32;3.88;;;2.38;;
58414;SDS011;44210;42.706;18.344;2022-09-12T03:39:58;2.30;;;2.10;;
58414;SDS011;44210;42.706;18.344;2022-09-12T03:42:27;4.88;;;2.25;;
58414;SDS011;44210;42.706;18.344;2022-09-12T03:44:53;2.95;;;2.50;;
58414;SDS011;44210;42.706;18.344;2022-09-12T03:47:23;2.65;;;2.20;;
58414;SDS011;44210;42.706;18.344;2022-09-12T03:49:49;2.85;;;2.58;;
58414;SDS011;44210;42.706;18.344;2022-09-12T03:52:16;3.30;;;2.63;;
58414;SDS011;44210;42.706;18.344;2022-09-12T03:54:42;3.28;;;2.53;;
58414;SDS011;44210;42.706;18.344;2022-09-12T03:57:08;3.22;;;2.30;;
58414;SDS011;44210;42.706;18.344;2022-09-12T03:59:35;2.70;;;2.22;;
58414;SDS011;44210;42.706;18.344;2022-09-12T04:02:01;3.67;;;2.47;;
58414;SDS011;44210;42.706;18.344;2022-09-12T04:04:28;5.80;;;2.45;;
58414;SDS011;44210;42.706;18.344;2022-09-12T04:06:54;2.97;;;2.65;;
58414;SDS011;44210;42.706;18.344;2022-09-12T04:09:20;2.75;;;2.05;;
58414;SDS011;44210;42.706;18.344;2022-09-12T04:11:46;4.85;;;2.72;;
58414;SDS011;44210;42.706;18.344;2022-09-12T04:14:12;2.65;;;2.30;;
58414;SDS011;44210;42.706;18.344;2022-09-12T04:16:38;3.35;;;2.10;;
58414;SDS011;44210;42.706;18.344;2022-09-12T04:19:04;5.07;;;2.25;;
58414;SDS011;44210;42.706;18.344;2022-09-12T04:21:30;2.22;;;2.03;;
58414;SDS011;44210;42.706;18.344;2022-09-12T04:23:56;2.35;;;1.70;;
58414;SDS011;44210;42.706;18.344;2022-09-12T04:26:22;3.22;;;2.08;;
58414;SDS011;44210;42.706;18.344;2022-09-12T04:28:51;3.17;;;2.13;;
58414;SDS011;44210;42.706;18.344;2022-09-12T04:31:19;6.97;;;2.53;;
58414;SDS011;44210;42.706;18.344;2022-09-12T04:33:47;3.13;;;2.08;;
58414;SDS011;44210;42.706;18.344;2022-09-12T04:36:15;4.93;;;1.95;;
58414;SDS011;44210;42.706;18.344;2022-09-12T04:38:42;14.18;;;3.50;;
58414;SDS011;44210;42.706;18.344;2022-09-12T04:41:30;4.35;;;2.97;;
58414;SDS011;44210;42.706;18.344;2022-09-12T04:43:56;2.50;;;1.98;;
58414;SDS011;44210;42.706;18.344;2022-09-12T04:46:23;2.53;;;2.30;;
58414;SDS011;44210;42.706;18.344;2022-09-12T04:48:49;2.97;;;2.63;;
58414;SDS011;44210;42.706;18.344;2022-09-12T04:51:16;2.97;;;2.20;;
58414;SDS011;44210;42.706;18.344;2022-09-12T04:53:46;2.28;;;2.05;;
58414;SDS011;44210;42.706;18.344;2022-09-12T04:56:13;2.28;;;2.08;;
58414;SDS011;44210;42.706;18.344;2022-09-12T04:58:39;5.10;;;2.10;;
58414;SDS011;44210;42.706;18.344;2022-09-12T05:03:31;6.32;;;2.13;;
58414;SDS011;44210;42.706;18.344;2022-09-12T05:05:57;4.32;;;2.13;;
58414;SDS011;44210;42.706;18.344;2022-09-12T05:08:23;2.40;;;1.95;;
58414;SDS011;44210;42.706;18.344;2022-09-12T05:10:49;5.10;;;1.85;;
58414;SDS011;44210;42.706;18.344;2022-09-12T05:13:15;5.35;;;2.40;;
58414;SDS011;44210;42.706;18.344;2022-09-12T05:15:41;2.90;;;2.50;;
58414;SDS011;44210;42.706;18.344;2022-09-12T05:18:07;6.03;;;2.05;;
58414;SDS011;44210;42.706;18.344;2022-09-12T05:20:33;3.70;;;1.98;;
58414;SDS011;44210;42.706;18.344;2022-09-12T05:22:59;2.45;;;2.00;;
58414;SDS011;44210;42.706;18.344;2022-09-12T05:25:25;3.67;;;2.13;;
58414;SDS011;44210;42.706;18.344;2022-09-12T05:27:51;2.28;;;1.70;;
58414;SDS011;44210;42.706;18.344;2022-09-12T05:30:17;2.08;;;1.85;;
58414;SDS011;44210;42.706;18.344;2022-09-12T05:32:43;2.20;;;2.00;;
58414;SDS011;44210;42.706;18.344;2022-09-12T05:35:09;4.32;;;1.80;;
58414;SDS011;44210;42.706;18.344;2022-09-12T05:37:36;2.05;;;1.85;;
58414;SDS011;44210;42.706;18.344;2022-09-12T05:40:02;4.65;;;1.58;;
58414;SDS011;44210;42.706;18.344;2022-09-12T05:42:31;2.00;;;1.80;;
58414;SDS011;44210;42.706;18.344;2022-09-12T05:44:57;3.22;;;1.80;;
58414;SDS011;44210;42.706;18.344;2022-09-12T05:47:26;2.92;;;2.50;;
58414;SDS011;44210;42.706;18.344;2022-09-12T05:49:52;2.40;;;2.20;;
58414;SDS011;44210;42.706;18.344;2022-09-12T05:52:18;1.88;;;1.77;;
58414;SDS011;44210;42.706;18.344;2022-09-12T05:54:44;3.63;;;2.00;;
58414;SDS011;44210;42.706;18.344;2022-09-12T05:57:11;2.85;;;1.85;;
58414;SDS011;44210;42.706;18.344;2022-09-12T05:59:37;1.65;;;1.55;;
58414;SDS011;44210;42.706;18.344;2022-09-12T06:02:03;5.53;;;2.15;;
58414;SDS011;44210;42.706;18.344;2022-09-12T06:04:29;3.58;;;2.20;;
58414;SDS011;44210;42.706;18.344;2022-09-12T06:06:55;1.92;;;1.83;;
58414;SDS011;44210;42.706;18.344;2022-09-12T06:09:21;2.30;;;1.90;;
58414;SDS011;44210;42.706;18.344;2022-09-12T06:11:49;2.10;;;1.70;;
58414;SDS011;44210;42.706;18.344;2022-09-12T06:14:15;7.60;;;1.88;;
58414;SDS011;44210;42.706;18.344;2022-09-12T06:16:42;1.60;;;1.45;;
58414;SDS011;44210;42.706;18.344;2022-09-12T06:19:15;3.88;;;1.65;;
58414;SDS011;44210;42.706;18.344;2022-09-12T06:21:42;1.95;;;1.80;;
58414;SDS011;44210;42.706;18.344;2022-09-12T06:24:08;2.72;;;1.75;;
58414;SDS011;44210;42.706;18.344;2022-09-12T06:26:34;2.47;;;1.67;;
58414;SDS011;44210;42.706;18.344;2022-09-12T06:29:01;1.50;;;1.40;;
58414;SDS011;44210;42.706;18.344;2022-09-12T06:31:28;1.60;;;1.50;;
58414;SDS011;44210;42.706;18.344;2022-09-12T06:33:54;1.80;;;1.50;;
58414;SDS011;44210;42.706;18.344;2022-09-12T06:36:24;1.80;;;1.63;;
58414;SDS011;44210;42.706;18.344;2022-09-12T06:38:55;2.05;;;1.80;;
58414;SDS011;44210;42.706;18.344;2022-09-12T06:41:21;2.60;;;1.50;;
58414;SDS011;44210;42.706;18.344;2022-09-12T06:43:48;1.58;;;1.40;;
58414;SDS011;44210;42.706;18.344;2022-09-12T06:46:14;1.73;;;1.55;;
58414;SDS011;44210;42.706;18.344;2022-09-12T06:48:40;2.35;;;2.00;;
58414;SDS011;44210;42.706;18.344;2022-09-12T06:51:10;3.58;;;1.48;;
58414;SDS011;44210;42.706;18.344;2022-09-12T06:53:37;1.27;;;1.17;;
58414;SDS011;44210;42.706;18.344;2022-09-12T06:58:36;1.60;;;1.50;;
58414;SDS011;44210;42.706;18.344;2022-09-12T07:01:03;1.77;;;1.58;;
58414;SDS011;44210;42.706;18.344;2022-09-12T07:03:29;1.52;;;1.40;;
58414;SDS011;44210;42.706;18.344;2022-09-12T07:05:55;1.63;;;1.40;;
58414;SDS011;44210;42.706;18.344;2022-09-12T07:08:22;1.67;;;1.35;;
58414;SDS011;44210;42.706;18.344;2022-09-12T07:10:48;2.33;;;1.40;;
58414;SDS011;44210;42.706;18.344;2022-09-12T07:13:14;1.40;;;1.30;;
58414;SDS011;44210;42.706;18.344;2022-09-12T07:15:40;1.20;;;1.10;;
58414;SDS011;44210;42.706;18.344;2022-09-12T07:18:07;3.75;;;1.30;;
58414;SDS011;44210;42.706;18.344;2022-09-12T07:20:33;1.30;;;1.20;;
58414;SDS011;44210;42.706;18.344;2022-09-12T07:23:01;1.30;;;1.20;;
58414;SDS011;44210;42.706;18.344;2022-09-12T07:25:27;1.58;;;1.48;;
58414;SDS011;44210;42.706;18.344;2022-09-12T07:27:53;1.40;;;1.30;;
58414;SDS011;44210;42.706;18.344;2022-09-12T07:30:19;1.30;;;1.20;;
58414;SDS011;44210;42.706;18.344;2022-09-12T07:32:46;3.10;;;1.35;;
58414;SDS011;44210;42.706;18.344;2022-09-12T07:35:12;1.30;;;1.20;;
58414;SDS011;44210;42.706;18.344;2022-09-12T07:37:38;5.43;;;1.30;;
58414;SDS011;44210;42.706;18.344;2022-09-12T07:40:04;2.15;;;1.58;;
58414;SDS011;44210;42.706;18.344;2022-09-12T07:42:31;0.93;;;0.93;;
58414;SDS011;44210;42.706;18.344;2022-09-12T07:44:57;2.35;;;1.20;;
58414;SDS011;44210;42.706;18.344;2022-09-12T07:47:23;2.20;;;1.00;;
58414;SDS011;44210;42.706;18.344;2022-09-12T07:49:49;3.17;;;1.45;;
58414;SDS011;44210;42.706;18.344;2022-09-12T07:52:16;2.25;;;1.00;;
58414;SDS011;44210;42.706;18.344;2022-09-12T07:54:43;1.00;;;1.00;;
58414;SDS011;44210;42.706;18.344;2022-09-12T07:57:09;1.65;;;1.20;;
58414;SDS011;44210;42.706;18.344;2022-09-12T07:59:35;1.27;;;0.98;;
58414;SDS011;44210;42.706;18.344;2022-09-12T08:02:09;1.13;;;1.10;;
58414;SDS011;44210;42.706;18.344;2022-09-12T08:04:35;1.25;;;1.15;;
58414;SDS011;44210;42.706;18.344;2022-09-12T08:07:01;0.98;;;0.98;;
58414;SDS011;44210;42.706;18.344;2022-09-12T08:09:27;2.05;;;0.90;;
58414;SDS011;44210;42.706;18.344;2022-09-12T08:11:54;1.05;;;1.00;;
58414;SDS011;44210;42.706;18.344;2022-09-12T08:14:20;1.05;;;1.00;;
58414;SDS011;44210;42.706;18.344;2022-09-12T08:16:46;1.08;;;0.90;;
58414;SDS011;44210;42.706;18.344;2022-09-12T08:19:12;0.82;;;0.82;;
58414;SDS011;44210;42.706;18.344;2022-09-12T08:21:38;2.15;;;0.98;;
58414;SDS011;44210;42.706;18.344;2022-09-12T08:24:05;1.10;;;1.08;;
58414;SDS011;44210;42.706;18.344;2022-09-12T08:26:31;1.23;;;1.00;;
58414;SDS011;44210;42.706;18.344;2022-09-12T08:28:58;1.23;;;1.13;;
58414;SDS011;44210;42.706;18.344;2022-09-12T08:31:24;1.25;;;0.90;;
58414;SDS011;44210;42.706;18.344;2022-09-12T08:33:51;0.90;;;0.90;;
58414;SDS011;44210;42.706;18.344;2022-09-12T08:36:21;0.90;;;0.90;;
58414;SDS011;44210;42.706;18.344;2022-09-12T08:38:48;0.98;;;0.98;;
58414;SDS011;44210;42.706;18.344;2022-09-12T08:48:58;1.02;;;0.80;;
58414;SDS011;44210;42.706;18.344;2022-09-12T08:51:25;3.60;;;0.80;;
58414;SDS011;44210;42.706;18.344;2022-09-12T08:53:52;0.90;;;0.90;;
58414;SDS011;44210;42.706;18.344;2022-09-12T08:56:20;1.35;;;1.10;;
58414;SDS011;44210;42.706;18.344;2022-09-12T08:58:46;1.35;;;1.05;;
58414;SDS011;44210;42.706;18.344;2022-09-12T09:11:47;0.75;;;0.75;;
58414;SDS011;44210;42.706;18.344;2022-09-12T09:17:59;1.00;;;1.00;;
58414;SDS011;44210;42.706;18.344;2022-09-12T09:22:36;0.88;;;0.82;;
58414;SDS011;44210;42.706;18.344;2022-09-12T09:25:10;0.70;;;0.70;;
58414;SDS011;44210;42.706;18.344;2022-09-12T09:27:49;0.88;;;0.80;;
58414;SDS011;44210;42.706;18.344;2022-09-12T09:30:17;0.90;;;0.90;;
58414;SDS011;44210;42.706;18.344;2022-09-12T09:32:49;1.20;;;1.10;;
58414;SDS011;44210;42.706;18.344;2022-09-12T09:37:54;0.82;;;0.80;;
58414;SDS011;44210;42.706;18.344;2022-09-12T09:40:46;1.67;;;0.90;;
58414;SDS011;44210;42.706;18.344;2022-09-12T09:43:19;2.50;;;1.20;;
58414;SDS011;44210;42.706;18.344;2022-09-12T09:45:51;1.77;;;1.10;;
58414;SDS011;44210;42.706;18.344;2022-09-12T09:48:19;1.65;;;1.13;;
58414;SDS011;44210;42.706;18.344;2022-09-12T09:50:47;1.83;;;0.80;;
58414;SDS011;44210;42.706;18.344;2022-09-12T09:55:58;1.08;;;0.90;;
58414;SDS011;44210;42.706;18.344;2022-09-12T09:58:27;1.00;;;1.00;;
58414;SDS011;44210;42.706;18.344;2022-09-12T10:00:56;0.93;;;0.90;;
58414;SDS011;44210;42.706;18.344;2022-09-12T10:03:24;0.82;;;0.82;;
58414;SDS011;44210;42.706;18.344;2022-09-12T10:05:53;1.10;;;1.10;;
58414;SDS011;44210;42.706;18.344;2022-09-12T10:08:22;0.85;;;0.82;;
58414;SDS011;44210;42.706;18.344;2022-09-12T10:10:52;1.02;;;1.00;;
58414;SDS011;44210;42.706;18.344;2022-09-12T10:13:23;0.80;;;0.80;;
58414;SDS011;44210;42.706;18.344;2022-09-12T10:15:57;1.20;;;1.10;;
58414;SDS011;44210;42.706;18.344;2022-09-12T10:18:34;1.65;;;1.05;;
58414;SDS011;44210;42.706;18.344;2022-09-12T10:21:00;8.15;;;0.75;;
58414;SDS011;44210;42.706;18.344;2022-09-12T10:23:34;4.10;;;1.27;;
58414;SDS011;44210;42.706;18.344;2022-09-12T10:26:02;1.10;;;1.00;;
58414;SDS011;44210;42.706;18.344;2022-09-12T10:31:15;2.92;;;1.20;;
58414;SDS011;44210;42.706;18.344;2022-09-12T10:33:42;3.78;;;0.98;;
58414;SDS011;44210;42.706;18.344;2022-09-12T10:36:10;2.50;;;1.15;;
58414;SDS011;44210;42.706;18.344;2022-09-12T10:38:37;1.63;;;1.52;;
58414;SDS011;44210;42.706;18.344;2022-09-12T10:41:04;0.82;;;0.82;;
58414;SDS011;44210;42.706;18.344;2022-09-12T10:46:22;1.17;;;1.10;;
58414;SDS011;44210;42.706;18.344;2022-09-12T10:48:50;1.05;;;1.05;;
58414;SDS011;44210;42.706;18.344;2022-09-12T10:53:51;1.40;;;1.27;;
58414;SDS011;44210;42.706;18.344;2022-09-12T10:59:21;0.95;;;0.95;;
58414;SDS011;44210;42.706;18.344;2022-09-12T11:12:07;1.67;;;1.27;;
58414;SDS011;44210;42.706;18.344;2022-09-12T11:19:46;1.20;;;1.10;;
58414;SDS011;44210;42.706;18.344;2022-09-12T11:22:20;2.10;;;0.85;;
58414;SDS011;44210;42.706;18.344;2022-09-12T11:24:56;1.20;;;1.10;;
58414;SDS011;44210;42.706;18.344;2022-09-12T11:30:02;1.00;;;0.90;;
58414;SDS011;44210;42.706;18.344;2022-09-12T11:42:55;1.30;;;1.02;;
58414;SDS011;44210;42.706;18.344;2022-09-12T11:45:34;1.13;;;0.90;;
58414;SDS011;44210;42.706;18.344;2022-09-12T11:48:03;1.48;;;1.30;;
58414;SDS011;44210;42.706;18.344;2022-09-12T11:50:31;1.60;;;1.17;;
58414;SDS011;44210;42.706;18.344;2022-09-12T11:53:02;2.20;;;1.02;;
58414;SDS011;44210;42.706;18.344;2022-09-12T11:55:31;1.17;;;1.08;;
58414;SDS011;44210;42.706;18.344;2022-09-12T11:58:02;1.27;;;1.10;;
58414;SDS011;44210;42.706;18.344;2022-09-12T12:01:05;1.40;;;1.20;;
58414;SDS011;44210;42.706;18.344;2022-09-12T12:03:30;1.42;;;1.20;;
58414;SDS011;44210;42.706;18.344;2022-09-12T12:06:06;1.33;;;1.00;;
58414;SDS011;44210;42.706;18.344;2022-09-12T12:08:39;2.28;;;0.98;;
58414;SDS011;44210;42.706;18.344;2022-09-12T12:11:06;1.88;;;1.20;;
58414;SDS011;44210;42.706;18.344;2022-09-12T12:13:34;1.35;;;1.25;;
58414;SDS011;44210;42.706;18.344;2022-09-12T12:16:07;1.00;;;1.00;;
58414;SDS011;44210;42.706;18.344;2022-09-12T12:18:37;1.20;;;1.15;;
58414;SDS011;44210;42.706;18.344;2022-09-12T12:29:19;1.42;;;1.33;;
58414;SDS011;44210;42.706;18.344;2022-09-12T12:36:54;1.65;;;1.10;;
58414;SDS011;44210;42.706;18.344;2022-09-12T12:41:59;1.73;;;1.23;;
58414;SDS011;44210;42.706;18.344;2022-09-12T12:50:19;1.30;;;1.20;;
58414;SDS011;44210;42.706;18.344;2022-09-12T12:52:51;2.60;;;1.10;;
58414;SDS011;44210;42.706;18.344;2022-09-12T12:55:29;1.63;;;1.20;;
58414;SDS011;44210;42.706;18.344;2022-09-12T12:58:00;1.20;;;1.10;;
58414;SDS011;44210;42.706;18.344;2022-09-12T13:00:28;2.17;;;1.15;;
58414;SDS011;44210;42.706;18.344;2022-09-12T13:08:28;2.97;;;1.40;;
58414;SDS011;44210;42.706;18.344;2022-09-12T13:11:00;1.55;;;1.20;;
58414;SDS011;44210;42.706;18.344;2022-09-12T13:15:53;3.40;;;1.27;;
58414;SDS011;44210;42.706;18.344;2022-09-12T13:18:26;1.75;;;1.63;;
58414;SDS011;44210;42.706;18.344;2022-09-12T13:21:06;2.58;;;1.27;;
58414;SDS011;44210;42.706;18.344;2022-09-12T13:23:32;2.80;;;1.48;;
58414;SDS011;44210;42.706;18.344;2022-09-12T13:26:00;1.65;;;1.23;;
58414;SDS011;44210;42.706;18.344;2022-09-12T13:28:27;2.28;;;1.65;;
58414;SDS011;44210;42.706;18.344;2022-09-12T13:30:55;1.70;;;1.23;;
58414;SDS011;44210;42.706;18.344;2022-09-12T13:38:57;1.30;;;1.20;;
58414;SDS011;44210;42.706;18.344;2022-09-12T13:43:37;1.50;;;1.40;;
58414;SDS011;44210;42.706;18.344;2022-09-12T13:46:05;3.28;;;1.58;;
58414;SDS011;44210;42.706;18.344;2022-09-12T13:48:34;1.30;;;1.20;;
58414;SDS011;44210;42.706;18.344;2022-09-12T13:51:00;2.00;;;1.30;;
58414;SDS011;44210;42.706;18.344;2022-09-12T13:53:31;4.13;;;1.75;;
58414;SDS011;44210;42.706;18.344;2022-09-12T13:56:01;2.90;;;1.40;;
58414;SDS011;44210;42.706;18.344;2022-09-12T13:58:28;1.80;;;1.40;;
58414;SDS011;44210;42.706;18.344;2022-09-12T14:01:14;3.05;;;2.00;;
58414;SDS011;44210;42.706;18.344;2022-09-12T14:03:50;2.50;;;1.55;;
58414;SDS011;44210;42.706;18.344;2022-09-12T14:06:42;1.63;;;1.50;;
58414;SDS011;44210;42.706;18.344;2022-09-12T14:09:28;3.40;;;1.77;;
58414;SDS011;44210;42.706;18.344;2022-09-12T14:11:55;3.08;;;1.40;;
58414;SDS011;44210;42.706;18.344;2022-09-12T14:16:51;6.53;;;1.80;;
58414;SDS011;44210;42.706;18.344;2022-09-12T14:19:18;2.92;;;2.05;;
58414;SDS011;44210;42.706;18.344;2022-09-12T14:21:46;3.38;;;1.67;;
58414;SDS011;44210;42.706;18.344;2022-09-12T14:24:13;1.70;;;1.60;;
58414;SDS011;44210;42.706;18.344;2022-09-12T14:26:40;3.47;;;1.70;;
58414;SDS011;44210;42.706;18.344;2022-09-12T14:29:08;2.05;;;1.83;;
58414;SDS011;44210;42.706;18.344;2022-09-12T14:31:37;1.70;;;1.60;;
58414;SDS011;44210;42.706;18.344;2022-09-12T14:36:49;1.85;;;1.75;;
58414;SDS011;44210;42.706;18.344;2022-09-12T14:41:42;2.30;;;2.08;;
58414;SDS011;44210;42.706;18.344;2022-09-12T14:44:14;2.22;;;2.10;;
58414;SDS011;44210;42.706;18.344;2022-09-12T14:46:41;4.68;;;2.13;;
58414;SDS011;44210;42.706;18.344;2022-09-12T14:52:04;2.00;;;1.90;;
58414;SDS011;44210;42.706;18.344;2022-09-12T14:57:17;2.58;;;1.90;;
58414;SDS011;44210;42.706;18.344;2022-09-12T14:59:52;2.15;;;1.85;;
58414;SDS011;44210;42.706;18.344;2022-09-12T15:04:45;2.63;;;2.15;;
58414;SDS011;44210;42.706;18.344;2022-09-12T15:10:01;2.20;;;2.00;;
58414;SDS011;44210;42.706;18.344;2022-09-12T15:12:28;5.10;;;3.20;;
58414;SDS011;44210;42.706;18.344;2022-09-12T15:15:27;3.20;;;2.30;;
58414;SDS011;44210;42.706;18.344;2022-09-12T15:17:46;2.60;;;2.40;;
58414;SDS011;44210;42.706;18.344;2022-09-12T15:20:12;2.95;;;2.20;;
58414;SDS011;44210;42.706;18.344;2022-09-12T15:22:39;2.28;;;2.08;;
58414;SDS011;44210;42.706;18.344;2022-09-12T15:25:05;2.38;;;2.17;;
58414;SDS011;44210;42.706;18.344;2022-09-12T15:27:31;2.40;;;2.20;;
58414;SDS011;44210;42.706;18.344;2022-09-12T15:29:58;2.45;;;2.10;;
58414;SDS011;44210;42.706;18.344;2022-09-12T15:32:24;2.78;;;2.25;;
58414;SDS011;44210;42.706;18.344;2022-09-12T15:34:51;2.95;;;2.38;;
58414;SDS011;44210;42.706;18.344;2022-09-12T15:37:17;2.90;;;2.15;;
58414;SDS011;44210;42.706;18.344;2022-09-12T15:39:44;2.72;;;2.17;;
58414;SDS011;44210;42.706;18.344;2022-09-12T15:42:11;2.50;;;2.30;;
58414;SDS011;44210;42.706;18.344;2022-09-12T15:44:37;4.57;;;2.17;;
58414;SDS011;44210;42.706;18.344;2022-09-12T15:47:03;2.40;;;2.15;;
58414;SDS011;44210;42.706;18.344;2022-09-12T15:49:30;2.30;;;2.10;;
58414;SDS011;44210;42.706;18.344;2022-09-12T15:51:56;6.65;;;2.33;;
58414;SDS011;44210;42.706;18.344;2022-09-12T15:54:22;2.92;;;2.40;;
58414;SDS011;44210;42.706;18.344;2022-09-12T15:56:48;2.40;;;2.20;;
58414;SDS011;44210;42.706;18.344;2022-09-12T15:59:14;4.78;;;2.03;;
58414;SDS011;44210;42.706;18.344;2022-09-12T16:01:40;4.72;;;2.20;;
58414;SDS011;44210;42.706;18.344;2022-09-12T16:07:02;3.00;;;2.25;;
58414;SDS011;44210;42.706;18.344;2022-09-12T16:09:28;2.40;;;2.20;;
58414;SDS011;44210;42.706;18.344;2022-09-12T16:11:54;2.65;;;2.45;;
58414;SDS011;44210;42.706;18.344;2022-09-12T16:14:20;3.80;;;2.58;;
58414;SDS011;44210;42.706;18.344;2022-09-12T16:16:53;3.33;;;2.50;;
58414;SDS011;44210;42.706;18.344;2022-09-12T16:19:19;2.42;;;2.08;;
58414;SDS011;44210;42.706;18.344;2022-09-12T16:21:45;2.92;;;2.20;;
58414;SDS011;44210;42.706;18.344;2022-09-12T16:24:11;2.10;;;2.00;;
58414;SDS011;44210;42.706;18.344;2022-09-12T16:26:37;4.05;;;2.45;;
58414;SDS011;44210;42.706;18.344;2022-09-12T16:29:03;6.88;;;2.72;;
58414;SDS011;44210;42.706;18.344;2022-09-12T16:31:29;3.42;;;2.30;;
58414;SDS011;44210;42.706;18.344;2022-09-12T16:33:55;3.72;;;2.20;;
58414;SDS011;44210;42.706;18.344;2022-09-12T16:36:21;2.85;;;2.15;;
58414;SDS011;44210;42.706;18.344;2022-09-12T16:38:48;5.03;;;2.17;;
58414;SDS011;44210;42.706;18.344;2022-09-12T16:41:16;2.65;;;2.30;;
58414;SDS011;44210;42.706;18.344;2022-09-12T16:43:44;3.38;;;1.73;;
58414;SDS011;44210;42.706;18.344;2022-09-12T16:46:12;5.30;;;2.65;;
58414;SDS011;44210;42.706;18.344;2022-09-12T16:48:43;3.45;;;2.80;;
58414;SDS011;44210;42.706;18.344;2022-09-12T16:51:10;2.65;;;2.17;;
58414;SDS011;44210;42.706;18.344;2022-09-12T16:53:37;2.67;;;2.25;;
58414;SDS011;44210;42.706;18.344;2022-09-12T16:56:06;3.33;;;1.98;;
58414;SDS011;44210;42.706;18.344;2022-09-12T16:58:33;5.82;;;2.33;;
58414;SDS011;44210;42.706;18.344;2022-09-12T17:01:00;3.03;;;2.67;;
58414;SDS011;44210;42.706;18.344;2022-09-12T17:03:27;3.20;;;2.88;;
58414;SDS011;44210;42.706;18.344;2022-09-12T17:06:00;2.80;;;2.50;;
58414;SDS011;44210;42.706;18.344;2022-09-12T17:08:27;4.18;;;2.25;;
58414;SDS011;44210;42.706;18.344;2022-09-12T17:11:03;2.33;;;1.70;;
58414;SDS011;44210;42.706;18.344;2022-09-12T17:13:30;2.80;;;2.30;;
58414;SDS011;44210;42.706;18.344;2022-09-12T17:15:56;2.10;;;1.90;;
58414;SDS011;44210;42.706;18.344;2022-09-12T17:18:23;2.60;;;2.38;;
58414;SDS011;44210;42.706;18.344;2022-09-12T17:20:49;2.03;;;1.75;;
58414;SDS011;44210;42.706;18.344;2022-09-12T17:23:15;2.08;;;1.88;;
58414;SDS011;44210;42.706;18.344;2022-09-12T17:25:47;2.40;;;1.90;;
58414;SDS011;44210;42.706;18.344;2022-09-12T17:28:14;2.65;;;2.00;;
58414;SDS011;44210;42.706;18.344;2022-09-12T17:30:40;3.33;;;2.22;;
58414;SDS011;44210;42.706;18.344;2022-09-12T17:33:07;3.05;;;2.05;;
58414;SDS011;44210;42.706;18.344;2022-09-12T17:35:33;6.20;;;4.28;;
58414;SDS011;44210;42.706;18.344;2022-09-12T17:37:59;3.08;;;2.30;;
58414;SDS011;44210;42.706;18.344;2022-09-12T17:40:26;5.20;;;3.08;;
58414;SDS011;44210;42.706;18.344;2022-09-12T17:42:52;4.40;;;2.70;;
58414;SDS011;44210;42.706;18.344;2022-09-12T17:45:18;8.07;;;4.03;;
58414;SDS011;44210;42.706;18.344;2022-09-12T17:47:44;3.58;;;2.42;;
58414;SDS011;44210;42.706;18.344;2022-09-12T17:50:11;4.47;;;3.00;;